sensor_id;sensor_type;location;lat;lon;timestamp;P1;durP1;ratioP1;P2;durP2;ratioP2
55025;SDS011;40925;45.666;18.994;2023-12-20T00:01:47;260.75;;;120.43;;
55025;SDS011;40925;45.666;18.994;2023-12-20T00:04:13;284.58;;;128.90;;
55025;SDS011;40925;45.666;18.994;2023-12-20T00:06:38;342.50;;;143.57;;
55025;SDS011;40925;45.666;18.994;2023-12-20T00:09:04;352.70;;;149.15;;
55025;SDS011;40925;45.666;18.994;2023-12-20T00:11:30;343.10;;;151.55;;
55025;SDS011;40925;45.666;18.994;2023-12-20T00:13:55;390.85;;;161.15;;
55025;SDS011;40925;45.666;18.994;2023-12-20T00:16:21;369.55;;;161.48;;
55025;SDS011;40925;45.666;18.994;2023-12-20T00:18:50;391.55;;;168.95;;
55025;SDS011;40925;45.666;18.994;2023-12-20T00:21:15;378.50;;;171.60;;
55025;SDS011;40925;45.666;18.994;2023-12-20T00:23:41;358.17;;;160.18;;
55025;SDS011;40925;45.666;18.994;2023-12-20T00:26:07;335.48;;;149.88;;
55025;SDS011;40925;45.666;18.994;2023-12-20T00:28:32;319.67;;;145.80;;
55025;SDS011;40925;45.666;18.994;2023-12-20T00:30:58;309.52;;;136.10;;
55025;SDS011;40925;45.666;18.994;2023-12-20T00:33:24;317.67;;;134.32;;
55025;SDS011;40925;45.666;18.994;2023-12-20T00:35:49;321.05;;;130.48;;
55025;SDS011;40925;45.666;18.994;2023-12-20T00:38:15;352.98;;;133.90;;
55025;SDS011;40925;45.666;18.994;2023-12-20T00:40:41;323.75;;;127.72;;
55025;SDS011;40925;45.666;18.994;2023-12-20T00:43:06;336.75;;;128.90;;
55025;SDS011;40925;45.666;18.994;2023-12-20T00:45:32;292.40;;;122.25;;
55025;SDS011;40925;45.666;18.994;2023-12-20T00:47:58;319.98;;;124.10;;
55025;SDS011;40925;45.666;18.994;2023-12-20T00:50:27;299.85;;;121.05;;
55025;SDS011;40925;45.666;18.994;2023-12-20T00:52:53;262.70;;;116.45;;
55025;SDS011;40925;45.666;18.994;2023-12-20T00:55:19;269.70;;;118.22;;
55025;SDS011;40925;45.666;18.994;2023-12-20T00:57:45;260.25;;;117.75;;
55025;SDS011;40925;45.666;18.994;2023-12-20T01:00:11;253.02;;;115.75;;
55025;SDS011;40925;45.666;18.994;2023-12-20T01:02:38;246.10;;;112.53;;
55025;SDS011;40925;45.666;18.994;2023-12-20T01:05:04;253.10;;;115.97;;
55025;SDS011;40925;45.666;18.994;2023-12-20T01:07:30;244.80;;;112.90;;
55025;SDS011;40925;45.666;18.994;2023-12-20T01:09:56;247.00;;;112.45;;
55025;SDS011;40925;45.666;18.994;2023-12-20T01:12:21;241.88;;;112.25;;
55025;SDS011;40925;45.666;18.994;2023-12-20T01:14:47;231.73;;;110.07;;
55025;SDS011;40925;45.666;18.994;2023-12-20T01:17:13;244.65;;;113.55;;
55025;SDS011;40925;45.666;18.994;2023-12-20T01:19:38;271.42;;;122.07;;
55025;SDS011;40925;45.666;18.994;2023-12-20T01:22:04;327.65;;;137.57;;
55025;SDS011;40925;45.666;18.994;2023-12-20T01:24:30;419.70;;;166.07;;
55025;SDS011;40925;45.666;18.994;2023-12-20T01:26:55;425.15;;;162.38;;
55025;SDS011;40925;45.666;18.994;2023-12-20T01:29:21;413.20;;;169.18;;
55025;SDS011;40925;45.666;18.994;2023-12-20T01:31:47;387.38;;;154.90;;
55025;SDS011;40925;45.666;18.994;2023-12-20T01:34:12;317.15;;;136.13;;
55025;SDS011;40925;45.666;18.994;2023-12-20T01:36:38;277.77;;;121.07;;
55025;SDS011;40925;45.666;18.994;2023-12-20T01:39:04;258.83;;;115.25;;
55025;SDS011;40925;45.666;18.994;2023-12-20T01:41:30;237.18;;;108.70;;
55025;SDS011;40925;45.666;18.994;2023-12-20T01:43:55;232.25;;;106.43;;
55025;SDS011;40925;45.666;18.994;2023-12-20T01:46:21;226.45;;;101.80;;
55025;SDS011;40925;45.666;18.994;2023-12-20T01:48:47;229.43;;;101.75;;
55025;SDS011;40925;45.666;18.994;2023-12-20T01:51:13;209.15;;;96.57;;
55025;SDS011;40925;45.666;18.994;2023-12-20T01:53:40;209.05;;;95.43;;
55025;SDS011;40925;45.666;18.994;2023-12-20T01:56:07;201.85;;;92.50;;
55025;SDS011;40925;45.666;18.994;2023-12-20T01:58:33;196.88;;;93.10;;
55025;SDS011;40925;45.666;18.994;2023-12-20T02:00:59;209.07;;;94.03;;
55025;SDS011;40925;45.666;18.994;2023-12-20T02:03:25;206.57;;;96.07;;
55025;SDS011;40925;45.666;18.994;2023-12-20T02:05:54;228.88;;;98.43;;
55025;SDS011;40925;45.666;18.994;2023-12-20T02:08:20;217.07;;;92.93;;
55025;SDS011;40925;45.666;18.994;2023-12-20T02:10:45;226.27;;;92.38;;
55025;SDS011;40925;45.666;18.994;2023-12-20T02:13:15;244.75;;;95.07;;
55025;SDS011;40925;45.666;18.994;2023-12-20T02:15:40;232.07;;;93.88;;
55025;SDS011;40925;45.666;18.994;2023-12-20T02:18:08;220.88;;;93.68;;
55025;SDS011;40925;45.666;18.994;2023-12-20T02:20:34;216.80;;;92.18;;
55025;SDS011;40925;45.666;18.994;2023-12-20T02:23:00;224.20;;;92.18;;
55025;SDS011;40925;45.666;18.994;2023-12-20T02:25:25;240.52;;;95.15;;
55025;SDS011;40925;45.666;18.994;2023-12-20T02:27:51;222.80;;;91.95;;
55025;SDS011;40925;45.666;18.994;2023-12-20T02:30:17;210.95;;;94.20;;
55025;SDS011;40925;45.666;18.994;2023-12-20T02:32:43;206.48;;;92.75;;
55025;SDS011;40925;45.666;18.994;2023-12-20T02:35:08;203.70;;;90.07;;
55025;SDS011;40925;45.666;18.994;2023-12-20T02:37:34;254.77;;;92.18;;
55025;SDS011;40925;45.666;18.994;2023-12-20T02:40:00;192.02;;;89.32;;
55025;SDS011;40925;45.666;18.994;2023-12-20T02:42:25;201.88;;;91.63;;
55025;SDS011;40925;45.666;18.994;2023-12-20T02:44:51;328.77;;;94.45;;
55025;SDS011;40925;45.666;18.994;2023-12-20T02:47:17;232.85;;;89.97;;
55025;SDS011;40925;45.666;18.994;2023-12-20T02:49:42;193.90;;;87.68;;
55025;SDS011;40925;45.666;18.994;2023-12-20T02:52:08;201.05;;;91.28;;
55025;SDS011;40925;45.666;18.994;2023-12-20T02:54:34;196.98;;;89.88;;
55025;SDS011;40925;45.666;18.994;2023-12-20T02:57:00;218.25;;;92.75;;
55025;SDS011;40925;45.666;18.994;2023-12-20T02:59:25;199.75;;;88.15;;
55025;SDS011;40925;45.666;18.994;2023-12-20T03:01:51;229.98;;;84.43;;
55025;SDS011;40925;45.666;18.994;2023-12-20T03:04:17;233.63;;;87.97;;
55025;SDS011;40925;45.666;18.994;2023-12-20T03:06:45;250.55;;;87.10;;
55025;SDS011;40925;45.666;18.994;2023-12-20T03:09:11;212.07;;;88.43;;
55025;SDS011;40925;45.666;18.994;2023-12-20T03:11:37;175.15;;;82.50;;
55025;SDS011;40925;45.666;18.994;2023-12-20T03:14:03;209.07;;;85.40;;
55025;SDS011;40925;45.666;18.994;2023-12-20T03:16:28;202.20;;;82.82;;
55025;SDS011;40925;45.666;18.994;2023-12-20T03:18:54;174.00;;;83.30;;
55025;SDS011;40925;45.666;18.994;2023-12-20T03:21:20;185.30;;;85.55;;
55025;SDS011;40925;45.666;18.994;2023-12-20T03:23:45;177.00;;;83.63;;
55025;SDS011;40925;45.666;18.994;2023-12-20T03:26:11;185.05;;;86.35;;
55025;SDS011;40925;45.666;18.994;2023-12-20T03:28:37;184.63;;;84.32;;
55025;SDS011;40925;45.666;18.994;2023-12-20T03:31:02;187.05;;;84.90;;
55025;SDS011;40925;45.666;18.994;2023-12-20T03:33:28;184.05;;;84.97;;
55025;SDS011;40925;45.666;18.994;2023-12-20T03:35:54;183.45;;;86.28;;
55025;SDS011;40925;45.666;18.994;2023-12-20T03:38:20;188.02;;;84.70;;
55025;SDS011;40925;45.666;18.994;2023-12-20T03:40:48;200.40;;;89.15;;
55025;SDS011;40925;45.666;18.994;2023-12-20T03:43:14;190.65;;;83.13;;
55025;SDS011;40925;45.666;18.994;2023-12-20T03:45:41;191.35;;;87.88;;
55025;SDS011;40925;45.666;18.994;2023-12-20T03:48:08;189.95;;;86.35;;
55025;SDS011;40925;45.666;18.994;2023-12-20T03:50:35;198.18;;;86.35;;
55025;SDS011;40925;45.666;18.994;2023-12-20T03:53:01;192.20;;;84.88;;
55025;SDS011;40925;45.666;18.994;2023-12-20T03:55:26;182.05;;;83.63;;
55025;SDS011;40925;45.666;18.994;2023-12-20T03:57:53;180.02;;;83.53;;
55025;SDS011;40925;45.666;18.994;2023-12-20T04:00:18;186.85;;;83.93;;
55025;SDS011;40925;45.666;18.994;2023-12-20T04:02:44;184.85;;;83.13;;
55025;SDS011;40925;45.666;18.994;2023-12-20T04:05:10;188.02;;;84.15;;
55025;SDS011;40925;45.666;18.994;2023-12-20T04:07:36;184.65;;;83.88;;
55025;SDS011;40925;45.666;18.994;2023-12-20T04:10:02;185.23;;;82.65;;
55025;SDS011;40925;45.666;18.994;2023-12-20T04:12:29;194.80;;;83.15;;
55025;SDS011;40925;45.666;18.994;2023-12-20T04:14:55;186.77;;;82.22;;
55025;SDS011;40925;45.666;18.994;2023-12-20T04:17:21;183.65;;;81.38;;
55025;SDS011;40925;45.666;18.994;2023-12-20T04:19:50;181.75;;;79.82;;
55025;SDS011;40925;45.666;18.994;2023-12-20T04:22:16;180.48;;;80.85;;
55025;SDS011;40925;45.666;18.994;2023-12-20T04:24:43;177.40;;;81.15;;
55025;SDS011;40925;45.666;18.994;2023-12-20T04:27:08;170.88;;;77.25;;
55025;SDS011;40925;45.666;18.994;2023-12-20T04:29:34;169.18;;;75.82;;
55025;SDS011;40925;45.666;18.994;2023-12-20T04:32:03;169.82;;;77.18;;
55025;SDS011;40925;45.666;18.994;2023-12-20T04:34:29;176.15;;;78.25;;
55025;SDS011;40925;45.666;18.994;2023-12-20T04:36:58;173.85;;;77.60;;
55025;SDS011;40925;45.666;18.994;2023-12-20T04:39:23;187.20;;;78.07;;
55025;SDS011;40925;45.666;18.994;2023-12-20T04:41:49;171.55;;;75.20;;
55025;SDS011;40925;45.666;18.994;2023-12-20T04:44:15;189.02;;;78.05;;
55025;SDS011;40925;45.666;18.994;2023-12-20T04:46:41;160.80;;;72.20;;
55025;SDS011;40925;45.666;18.994;2023-12-20T04:49:07;172.75;;;75.20;;
55025;SDS011;40925;45.666;18.994;2023-12-20T04:51:33;177.70;;;78.35;;
55025;SDS011;40925;45.666;18.994;2023-12-20T04:53:59;173.15;;;77.00;;
55025;SDS011;40925;45.666;18.994;2023-12-20T04:56:25;176.10;;;79.72;;
55025;SDS011;40925;45.666;18.994;2023-12-20T04:58:51;175.80;;;77.05;;
55025;SDS011;40925;45.666;18.994;2023-12-20T05:01:17;175.13;;;77.32;;
55025;SDS011;40925;45.666;18.994;2023-12-20T05:03:43;182.85;;;81.10;;
55025;SDS011;40925;45.666;18.994;2023-12-20T05:06:09;171.13;;;76.90;;
55025;SDS011;40925;45.666;18.994;2023-12-20T05:08:35;180.40;;;77.95;;
55025;SDS011;40925;45.666;18.994;2023-12-20T05:11:01;187.45;;;77.55;;
55025;SDS011;40925;45.666;18.994;2023-12-20T05:13:27;175.60;;;76.10;;
55025;SDS011;40925;45.666;18.994;2023-12-20T05:15:52;184.00;;;78.60;;
55025;SDS011;40925;45.666;18.994;2023-12-20T05:18:18;179.02;;;76.85;;
55025;SDS011;40925;45.666;18.994;2023-12-20T05:20:43;181.23;;;76.57;;
55025;SDS011;40925;45.666;18.994;2023-12-20T05:23:11;205.07;;;79.07;;
55025;SDS011;40925;45.666;18.994;2023-12-20T05:25:38;214.75;;;79.93;;
55025;SDS011;40925;45.666;18.994;2023-12-20T05:28:04;179.00;;;72.15;;
55025;SDS011;40925;45.666;18.994;2023-12-20T05:30:30;188.65;;;75.00;;
55025;SDS011;40925;45.666;18.994;2023-12-20T05:32:55;203.68;;;74.72;;
55025;SDS011;40925;45.666;18.994;2023-12-20T05:35:21;187.27;;;73.75;;
55025;SDS011;40925;45.666;18.994;2023-12-20T05:37:51;187.52;;;74.85;;
55025;SDS011;40925;45.666;18.994;2023-12-20T05:40:16;209.98;;;75.53;;
55025;SDS011;40925;45.666;18.994;2023-12-20T05:42:42;189.70;;;73.30;;
55025;SDS011;40925;45.666;18.994;2023-12-20T05:45:08;211.38;;;74.68;;
55025;SDS011;40925;45.666;18.994;2023-12-20T05:47:37;193.98;;;73.30;;
55025;SDS011;40925;45.666;18.994;2023-12-20T05:50:03;220.50;;;75.80;;
55025;SDS011;40925;45.666;18.994;2023-12-20T05:52:29;206.18;;;77.57;;
55025;SDS011;40925;45.666;18.994;2023-12-20T05:54:55;226.48;;;81.47;;
55025;SDS011;40925;45.666;18.994;2023-12-20T05:57:22;225.40;;;80.25;;
55025;SDS011;40925;45.666;18.994;2023-12-20T05:59:48;220.48;;;75.68;;
55025;SDS011;40925;45.666;18.994;2023-12-20T06:02:14;214.02;;;78.10;;
55025;SDS011;40925;45.666;18.994;2023-12-20T06:04:42;222.13;;;78.90;;
55025;SDS011;40925;45.666;18.994;2023-12-20T06:07:09;211.38;;;79.38;;
55025;SDS011;40925;45.666;18.994;2023-12-20T06:09:40;212.27;;;81.20;;
55025;SDS011;40925;45.666;18.994;2023-12-20T06:12:06;238.18;;;77.32;;
55025;SDS011;40925;45.666;18.994;2023-12-20T06:14:34;231.90;;;77.28;;
55025;SDS011;40925;45.666;18.994;2023-12-20T06:17:00;229.77;;;78.38;;
55025;SDS011;40925;45.666;18.994;2023-12-20T06:19:26;218.10;;;80.80;;
55025;SDS011;40925;45.666;18.994;2023-12-20T06:21:56;320.65;;;89.47;;
55025;SDS011;40925;45.666;18.994;2023-12-20T06:24:22;222.45;;;82.20;;
55025;SDS011;40925;45.666;18.994;2023-12-20T06:26:47;246.93;;;82.47;;
55025;SDS011;40925;45.666;18.994;2023-12-20T06:29:13;216.73;;;79.20;;
55025;SDS011;40925;45.666;18.994;2023-12-20T06:31:39;264.48;;;82.35;;
55025;SDS011;40925;45.666;18.994;2023-12-20T06:34:04;223.20;;;78.07;;
55025;SDS011;40925;45.666;18.994;2023-12-20T06:36:33;215.15;;;80.45;;
55025;SDS011;40925;45.666;18.994;2023-12-20T06:38:58;210.27;;;82.68;;
55025;SDS011;40925;45.666;18.994;2023-12-20T06:41:24;258.25;;;86.57;;
55025;SDS011;40925;45.666;18.994;2023-12-20T06:43:50;230.80;;;87.18;;
55025;SDS011;40925;45.666;18.994;2023-12-20T06:46:18;263.38;;;99.10;;
55025;SDS011;40925;45.666;18.994;2023-12-20T06:48:44;254.13;;;98.55;;
55025;SDS011;40925;45.666;18.994;2023-12-20T06:51:16;264.10;;;101.32;;
55025;SDS011;40925;45.666;18.994;2023-12-20T06:53:44;252.20;;;97.50;;
55025;SDS011;40925;45.666;18.994;2023-12-20T06:56:11;209.93;;;85.28;;
55025;SDS011;40925;45.666;18.994;2023-12-20T06:58:38;245.15;;;87.35;;
55025;SDS011;40925;45.666;18.994;2023-12-20T07:01:03;250.50;;;85.75;;
55025;SDS011;40925;45.666;18.994;2023-12-20T07:03:30;202.23;;;81.97;;
55025;SDS011;40925;45.666;18.994;2023-12-20T07:05:55;230.57;;;89.70;;
55025;SDS011;40925;45.666;18.994;2023-12-20T07:08:21;220.15;;;80.47;;
55025;SDS011;40925;45.666;18.994;2023-12-20T07:10:47;190.85;;;77.13;;
55025;SDS011;40925;45.666;18.994;2023-12-20T07:13:13;189.00;;;77.43;;
55025;SDS011;40925;45.666;18.994;2023-12-20T07:15:39;174.02;;;70.45;;
55025;SDS011;40925;45.666;18.994;2023-12-20T07:18:04;170.23;;;70.10;;
55025;SDS011;40925;45.666;18.994;2023-12-20T07:20:31;176.30;;;68.97;;
55025;SDS011;40925;45.666;18.994;2023-12-20T07:22:57;169.02;;;69.45;;
55025;SDS011;40925;45.666;18.994;2023-12-20T07:25:25;168.98;;;68.63;;
55025;SDS011;40925;45.666;18.994;2023-12-20T07:27:51;172.05;;;70.07;;
55025;SDS011;40925;45.666;18.994;2023-12-20T07:30:17;164.80;;;70.00;;
55025;SDS011;40925;45.666;18.994;2023-12-20T07:32:43;169.20;;;70.47;;
55025;SDS011;40925;45.666;18.994;2023-12-20T07:35:12;179.13;;;71.47;;
55025;SDS011;40925;45.666;18.994;2023-12-20T07:37:38;175.73;;;73.70;;
55025;SDS011;40925;45.666;18.994;2023-12-20T07:40:03;196.15;;;73.47;;
55025;SDS011;40925;45.666;18.994;2023-12-20T07:42:30;234.55;;;81.10;;
55025;SDS011;40925;45.666;18.994;2023-12-20T07:44:55;189.52;;;74.15;;
55025;SDS011;40925;45.666;18.994;2023-12-20T07:47:21;187.43;;;76.03;;
55025;SDS011;40925;45.666;18.994;2023-12-20T07:49:48;183.95;;;72.35;;
55025;SDS011;40925;45.666;18.994;2023-12-20T07:52:14;183.55;;;74.57;;
55025;SDS011;40925;45.666;18.994;2023-12-20T07:54:39;180.60;;;73.10;;
55025;SDS011;40925;45.666;18.994;2023-12-20T07:57:05;169.10;;;68.85;;
55025;SDS011;40925;45.666;18.994;2023-12-20T07:59:31;165.05;;;66.22;;
55025;SDS011;40925;45.666;18.994;2023-12-20T08:01:57;160.18;;;64.15;;
55025;SDS011;40925;45.666;18.994;2023-12-20T08:04:22;162.15;;;67.65;;
55025;SDS011;40925;45.666;18.994;2023-12-20T08:06:51;159.20;;;64.28;;
55025;SDS011;40925;45.666;18.994;2023-12-20T08:09:16;166.65;;;67.80;;
55025;SDS011;40925;45.666;18.994;2023-12-20T08:11:45;171.55;;;72.80;;
55025;SDS011;40925;45.666;18.994;2023-12-20T08:14:12;158.32;;;63.58;;
55025;SDS011;40925;45.666;18.994;2023-12-20T08:16:38;156.15;;;64.50;;
55025;SDS011;40925;45.666;18.994;2023-12-20T08:19:04;151.35;;;64.18;;
55025;SDS011;40925;45.666;18.994;2023-12-20T08:21:30;155.57;;;65.15;;
55025;SDS011;40925;45.666;18.994;2023-12-20T08:23:56;155.25;;;66.55;;
55025;SDS011;40925;45.666;18.994;2023-12-20T08:26:25;169.20;;;70.03;;
55025;SDS011;40925;45.666;18.994;2023-12-20T08:28:51;161.40;;;65.78;;
55025;SDS011;40925;45.666;18.994;2023-12-20T08:31:18;160.77;;;66.10;;
55025;SDS011;40925;45.666;18.994;2023-12-20T08:33:44;160.48;;;70.47;;
55025;SDS011;40925;45.666;18.994;2023-12-20T08:36:10;147.80;;;60.40;;
55025;SDS011;40925;45.666;18.994;2023-12-20T08:38:37;154.73;;;62.22;;
55025;SDS011;40925;45.666;18.994;2023-12-20T08:41:06;185.30;;;61.67;;
55025;SDS011;40925;45.666;18.994;2023-12-20T08:43:33;149.13;;;59.50;;
55025;SDS011;40925;45.666;18.994;2023-12-20T08:46:00;166.00;;;60.47;;
55025;SDS011;40925;45.666;18.994;2023-12-20T08:48:25;159.45;;;65.18;;
55025;SDS011;40925;45.666;18.994;2023-12-20T08:50:56;158.48;;;65.57;;
55025;SDS011;40925;45.666;18.994;2023-12-20T08:53:22;158.60;;;60.67;;
55025;SDS011;40925;45.666;18.994;2023-12-20T08:55:48;155.85;;;61.45;;
55025;SDS011;40925;45.666;18.994;2023-12-20T08:58:13;155.80;;;63.30;;
55025;SDS011;40925;45.666;18.994;2023-12-20T09:00:39;147.45;;;60.03;;
55025;SDS011;40925;45.666;18.994;2023-12-20T09:03:09;141.18;;;58.90;;
55025;SDS011;40925;45.666;18.994;2023-12-20T09:05:35;150.23;;;61.83;;
55025;SDS011;40925;45.666;18.994;2023-12-20T09:08:00;155.82;;;58.47;;
55025;SDS011;40925;45.666;18.994;2023-12-20T09:10:26;147.95;;;61.42;;
55025;SDS011;40925;45.666;18.994;2023-12-20T09:12:52;149.38;;;61.22;;
55025;SDS011;40925;45.666;18.994;2023-12-20T09:15:25;141.23;;;61.03;;
55025;SDS011;40925;45.666;18.994;2023-12-20T09:17:51;135.82;;;55.83;;
55025;SDS011;40925;45.666;18.994;2023-12-20T09:20:17;137.70;;;56.35;;
55025;SDS011;40925;45.666;18.994;2023-12-20T09:22:51;149.00;;;58.60;;
55025;SDS011;40925;45.666;18.994;2023-12-20T09:25:19;130.90;;;53.03;;
55025;SDS011;40925;45.666;18.994;2023-12-20T09:27:45;155.57;;;60.83;;
55025;SDS011;40925;45.666;18.994;2023-12-20T09:30:11;156.27;;;59.38;;
55025;SDS011;40925;45.666;18.994;2023-12-20T09:32:37;161.48;;;64.63;;
55025;SDS011;40925;45.666;18.994;2023-12-20T09:35:03;164.93;;;67.50;;
55025;SDS011;40925;45.666;18.994;2023-12-20T09:37:31;170.85;;;71.63;;
55025;SDS011;40925;45.666;18.994;2023-12-20T09:39:56;179.27;;;69.20;;
55025;SDS011;40925;45.666;18.994;2023-12-20T09:42:30;171.65;;;69.13;;
55025;SDS011;40925;45.666;18.994;2023-12-20T09:45:03;155.45;;;65.88;;
55025;SDS011;40925;45.666;18.994;2023-12-20T09:47:35;159.80;;;64.80;;
55025;SDS011;40925;45.666;18.994;2023-12-20T09:50:02;178.05;;;70.57;;
55025;SDS011;40925;45.666;18.994;2023-12-20T09:52:28;168.07;;;70.15;;
55025;SDS011;40925;45.666;18.994;2023-12-20T09:54:54;173.90;;;71.00;;
55025;SDS011;40925;45.666;18.994;2023-12-20T09:57:21;165.13;;;72.07;;
55025;SDS011;40925;45.666;18.994;2023-12-20T09:59:50;173.20;;;76.15;;
55025;SDS011;40925;45.666;18.994;2023-12-20T10:02:15;193.13;;;83.22;;
55025;SDS011;40925;45.666;18.994;2023-12-20T10:04:46;166.50;;;68.63;;
55025;SDS011;40925;45.666;18.994;2023-12-20T10:07:13;161.80;;;59.42;;
55025;SDS011;40925;45.666;18.994;2023-12-20T10:09:38;167.45;;;65.47;;
55025;SDS011;40925;45.666;18.994;2023-12-20T10:12:04;169.35;;;68.18;;
55025;SDS011;40925;45.666;18.994;2023-12-20T10:14:34;213.35;;;70.55;;
55025;SDS011;40925;45.666;18.994;2023-12-20T10:17:02;170.27;;;68.05;;
55025;SDS011;40925;45.666;18.994;2023-12-20T10:19:29;179.13;;;69.85;;
55025;SDS011;40925;45.666;18.994;2023-12-20T10:21:55;196.68;;;72.10;;
55025;SDS011;40925;45.666;18.994;2023-12-20T10:24:22;198.25;;;76.18;;
55025;SDS011;40925;45.666;18.994;2023-12-20T10:26:48;194.85;;;74.00;;
55025;SDS011;40925;45.666;18.994;2023-12-20T10:29:36;211.60;;;81.15;;
55025;SDS011;40925;45.666;18.994;2023-12-20T10:32:25;203.60;;;78.03;;
55025;SDS011;40925;45.666;18.994;2023-12-20T10:34:52;199.02;;;77.43;;
55025;SDS011;40925;45.666;18.994;2023-12-20T10:37:19;211.95;;;84.55;;
55025;SDS011;40925;45.666;18.994;2023-12-20T10:39:52;183.65;;;72.57;;
55025;SDS011;40925;45.666;18.994;2023-12-20T10:42:27;192.75;;;68.00;;
55025;SDS011;40925;45.666;18.994;2023-12-20T10:44:54;182.85;;;64.55;;
55025;SDS011;40925;45.666;18.994;2023-12-20T10:47:20;204.82;;;66.82;;
55025;SDS011;40925;45.666;18.994;2023-12-20T10:49:46;233.30;;;69.32;;
55025;SDS011;40925;45.666;18.994;2023-12-20T10:52:12;274.98;;;71.72;;
55025;SDS011;40925;45.666;18.994;2023-12-20T10:54:39;214.65;;;73.68;;
55025;SDS011;40925;45.666;18.994;2023-12-20T10:57:09;214.50;;;67.80;;
55025;SDS011;40925;45.666;18.994;2023-12-20T10:59:35;215.68;;;72.65;;
55025;SDS011;40925;45.666;18.994;2023-12-20T11:02:03;211.02;;;69.30;;
55025;SDS011;40925;45.666;18.994;2023-12-20T11:07:38;194.80;;;65.47;;
55025;SDS011;40925;45.666;18.994;2023-12-20T11:10:23;186.73;;;59.95;;
55025;SDS011;40925;45.666;18.994;2023-12-20T11:13:06;178.52;;;59.63;;
55025;SDS011;40925;45.666;18.994;2023-12-20T11:15:37;285.42;;;65.72;;
55025;SDS011;40925;45.666;18.994;2023-12-20T11:18:03;181.90;;;69.03;;
55025;SDS011;40925;45.666;18.994;2023-12-20T11:20:37;203.27;;;75.47;;
55025;SDS011;40925;45.666;18.994;2023-12-20T11:23:04;198.23;;;76.60;;
55025;SDS011;40925;45.666;18.994;2023-12-20T11:25:44;187.20;;;72.05;;
55025;SDS011;40925;45.666;18.994;2023-12-20T11:28:12;189.95;;;69.47;;
55025;SDS011;40925;45.666;18.994;2023-12-20T11:33:15;151.57;;;57.33;;
55025;SDS011;40925;45.666;18.994;2023-12-20T11:35:41;186.38;;;66.00;;
55025;SDS011;40925;45.666;18.994;2023-12-20T11:38:10;158.00;;;51.50;;
55025;SDS011;40925;45.666;18.994;2023-12-20T11:40:36;168.68;;;60.05;;
55025;SDS011;40925;45.666;18.994;2023-12-20T11:43:03;165.65;;;62.30;;
55025;SDS011;40925;45.666;18.994;2023-12-20T11:45:30;153.50;;;58.72;;
55025;SDS011;40925;45.666;18.994;2023-12-20T11:47:57;157.38;;;57.67;;
55025;SDS011;40925;45.666;18.994;2023-12-20T11:50:23;155.65;;;57.53;;
55025;SDS011;40925;45.666;18.994;2023-12-20T11:52:51;145.88;;;56.33;;
55025;SDS011;40925;45.666;18.994;2023-12-20T11:55:18;153.15;;;53.55;;
55025;SDS011;40925;45.666;18.994;2023-12-20T11:57:44;145.98;;;54.42;;
55025;SDS011;40925;45.666;18.994;2023-12-20T12:00:10;141.32;;;52.72;;
55025;SDS011;40925;45.666;18.994;2023-12-20T12:02:36;148.20;;;53.90;;
55025;SDS011;40925;45.666;18.994;2023-12-20T12:05:02;152.82;;;55.85;;
55025;SDS011;40925;45.666;18.994;2023-12-20T12:07:31;154.68;;;57.45;;
55025;SDS011;40925;45.666;18.994;2023-12-20T12:09:57;172.85;;;63.10;;
55025;SDS011;40925;45.666;18.994;2023-12-20T12:12:25;172.93;;;66.32;;
55025;SDS011;40925;45.666;18.994;2023-12-20T12:14:52;136.65;;;50.47;;
55025;SDS011;40925;45.666;18.994;2023-12-20T12:17:19;148.10;;;55.08;;
55025;SDS011;40925;45.666;18.994;2023-12-20T12:19:45;164.57;;;57.47;;
55025;SDS011;40925;45.666;18.994;2023-12-20T12:22:13;166.90;;;54.85;;
55025;SDS011;40925;45.666;18.994;2023-12-20T12:24:40;147.60;;;49.30;;
55025;SDS011;40925;45.666;18.994;2023-12-20T12:27:10;129.35;;;46.88;;
55025;SDS011;40925;45.666;18.994;2023-12-20T12:29:37;128.02;;;46.78;;
55025;SDS011;40925;45.666;18.994;2023-12-20T12:32:05;129.88;;;49.50;;
55025;SDS011;40925;45.666;18.994;2023-12-20T12:34:32;140.70;;;54.63;;
55025;SDS011;40925;45.666;18.994;2023-12-20T12:36:59;138.90;;;53.00;;
55025;SDS011;40925;45.666;18.994;2023-12-20T12:39:25;132.23;;;50.50;;
55025;SDS011;40925;45.666;18.994;2023-12-20T12:41:51;135.98;;;52.47;;
55025;SDS011;40925;45.666;18.994;2023-12-20T12:44:17;134.63;;;54.20;;
55025;SDS011;40925;45.666;18.994;2023-12-20T12:46:43;128.27;;;49.15;;
55025;SDS011;40925;45.666;18.994;2023-12-20T12:49:14;140.02;;;54.17;;
55025;SDS011;40925;45.666;18.994;2023-12-20T12:51:40;132.18;;;53.22;;
55025;SDS011;40925;45.666;18.994;2023-12-20T12:54:06;129.02;;;49.30;;
55025;SDS011;40925;45.666;18.994;2023-12-20T12:56:31;129.20;;;50.42;;
55025;SDS011;40925;45.666;18.994;2023-12-20T12:58:57;143.18;;;54.38;;
55025;SDS011;40925;45.666;18.994;2023-12-20T13:01:24;149.98;;;58.70;;
55025;SDS011;40925;45.666;18.994;2023-12-20T13:03:49;154.18;;;63.15;;
55025;SDS011;40925;45.666;18.994;2023-12-20T13:06:15;148.32;;;60.90;;
55025;SDS011;40925;45.666;18.994;2023-12-20T13:08:41;148.10;;;60.80;;
55025;SDS011;40925;45.666;18.994;2023-12-20T13:11:06;184.45;;;77.38;;
55025;SDS011;40925;45.666;18.994;2023-12-20T13:13:32;162.18;;;69.43;;
55025;SDS011;40925;45.666;18.994;2023-12-20T13:15:58;130.70;;;56.40;;
55025;SDS011;40925;45.666;18.994;2023-12-20T13:18:24;127.40;;;56.30;;
55025;SDS011;40925;45.666;18.994;2023-12-20T13:20:49;139.82;;;56.20;;
55025;SDS011;40925;45.666;18.994;2023-12-20T13:23:15;142.85;;;58.45;;
55025;SDS011;40925;45.666;18.994;2023-12-20T13:25:43;129.50;;;54.53;;
55025;SDS011;40925;45.666;18.994;2023-12-20T13:28:10;128.63;;;55.20;;
55025;SDS011;40925;45.666;18.994;2023-12-20T13:30:37;103.35;;;48.90;;
55025;SDS011;40925;45.666;18.994;2023-12-20T13:33:03;113.78;;;53.15;;
55025;SDS011;40925;45.666;18.994;2023-12-20T13:35:30;146.00;;;67.05;;
55025;SDS011;40925;45.666;18.994;2023-12-20T13:37:57;116.03;;;54.72;;
55025;SDS011;40925;45.666;18.994;2023-12-20T13:40:23;103.35;;;49.30;;
55025;SDS011;40925;45.666;18.994;2023-12-20T13:42:48;108.60;;;52.45;;
55025;SDS011;40925;45.666;18.994;2023-12-20T13:45:14;94.75;;;47.75;;
55025;SDS011;40925;45.666;18.994;2023-12-20T13:47:43;98.47;;;49.35;;
55025;SDS011;40925;45.666;18.994;2023-12-20T13:50:09;89.47;;;46.10;;
55025;SDS011;40925;45.666;18.994;2023-12-20T13:52:35;102.07;;;51.22;;
55025;SDS011;40925;45.666;18.994;2023-12-20T13:55:01;111.63;;;53.83;;
55025;SDS011;40925;45.666;18.994;2023-12-20T13:57:27;176.48;;;78.90;;
55025;SDS011;40925;45.666;18.994;2023-12-20T13:59:54;117.70;;;55.88;;